• Join FlightAware (Why Join?)
  • Login
  • US Flag 
01:40AM EDT


 

Airport Tracker/Info


-or-


 

Live Flight TrackerFlight Track Log ✈ N121JM ✈ 25-Apr-2013 ✈ KXNA - KTEB

Flight Track Log - Related Links

Times and Time Zones

All times are in EDT time to prevent confusion due to time zone crossing. See the N121JM flight status page for this flight to view local times or setup timezone preferences in your user account.

Time Position Orientation Groundspeed Altitude Reporting Facility
EDT Latitude Longitude Course Direction KTS MPH feet Rate Location/Type
09:20AM 36.3711 -94.3158 90° East 248 285 4,900  Level Memphis Center
09:21AM 36.3822 -94.2236 81° East 280 322 8,100 2,760 Climbing Memphis Center
09:22AM 36.3731 -94.1200 96° East 300 345 10,500 1,980 Climbing Memphis Center
09:23AM 36.3619 -94.0008 97° East 324 373 12,100 1,740 Climbing Memphis Center
09:24AM 36.3514 -93.8614 95° East 366 421 14,000 2,100 Climbing Memphis Center
09:25AM 36.2333 -93.4614 90° East  Level FlightAware Approximate
09:25AM 36.3364 -93.7189 97° East 400 460 16,400  Level Memphis Center
09:26AM 36.3239 -93.5664 96° East 429 494 18,000 1,800 Climbing Memphis Center
09:27AM 36.3089 -93.4089 97° East 450 518 20,100 1,800 Climbing Memphis Center
09:28AM 36.2919 -93.2433 97° East 463 533 21,700 1,560 Climbing Memphis Center
09:29AM 36.2750 -93.0756 97° East 483 556 23,300 1,500 Climbing Memphis Center
09:30AM 36.2703 -92.9003 92° East 493 567 24,800 1,440 Climbing Memphis Center
09:31AM 36.2906 -92.7283 82° East 499 574 26,200 1,440 Climbing Memphis Center
09:32AM 36.3208 -92.5514 78° East 508 585 27,700 1,440 Climbing Memphis Center
09:33AM 36.3508 -92.3719 78° East 521 600 29,100 1,320 Climbing Memphis Center
09:34AM 36.3767 -92.1894 80° East 532 612 30,400 1,320 Climbing Memphis Center
09:35AM 36.3753 -91.9911 90° East 547 629 31,800 1,500 Climbing Memphis Center
09:36AM 36.3692 -91.7950 92° East 559 643 33,500 1,380 Climbing Memphis Center
09:37AM 36.3631 -91.5861 92° East 559 643 34,600 1,200 Climbing Memphis Center
09:38AM 36.3567 -91.3903 92° East 559 643 36,000 1,440 Climbing Memphis Center
09:39AM 36.3517 -91.1969 92° East 553 636 37,500 1,440 Climbing Memphis Center
09:40AM 36.3467 -91.0089 92° East 553 636 38,900 1,140 Climbing Memphis Center
09:41AM 36.3433 -90.8208 91° East 553 636 39,800 900 Climbing Memphis Center
09:42AM 36.3333 -90.6353 94° East 553 636 40,800 600 Climbing Memphis Center
09:43AM 36.3275 -90.4472 92° East 548 631 41,000 60 Climbing Memphis Center
09:44AM 36.3192 -90.2539 93° East 548 631 41,000  Level Memphis Center
09:45AM 36.3147 -90.0608 92° East 559 643 41,000  Level Memphis Center
09:46AM 36.3056 -89.8625 93° East 559 643 41,000  Level Memphis Center
09:47AM 36.2964 -89.6694 93° East 564 649 41,000  Level Memphis Center
09:48AM 36.2847 -89.4792 94° East 564 649 41,000  Level Memphis Center
09:49AM 36.2789 -89.2758 92° East 570 656 41,000  Level Memphis Center
09:50AM 36.2708 -89.0775 93° East 577 664 41,000  Level Memphis Center
09:51AM 36.2644 -88.8847 92° East 572 658 41,000  Level Memphis Center
09:52AM 36.2558 -88.6917 93° East 567 652 41,000  Level Memphis Center
09:53AM 36.2467 -88.4964 93° East 567 652 41,000  Level Memphis Center
09:54AM 36.2353 -88.3036 94° East 567 652 41,000  Level Memphis Center
09:55AM 36.2286 -88.1469 93° East 567 652 41,000  Level Memphis Center
09:56AM 36.2142 -87.9414 95° East 553 636 41,000  Level Memphis Center
09:57AM 36.2042 -87.7489 94° East 553 636 41,000  Level Memphis Center
09:58AM 36.1917 -87.5589 95° East 553 636 41,000  Level Memphis Center
09:59AM 36.1808 -87.3639 94° East 553 636 41,000  Level Memphis Center
10:00AM 36.1678 -87.1767 95° East 553 636 41,000  Level Memphis Center
10:01AM 36.1522 -86.9844 96° East 553 636 41,000  Level Memphis Center
10:02AM 36.1406 -86.7872 94° East 563 648 41,000  Level Memphis Center
10:03AM 36.1642 -86.5958 81° East 563 648 41,000  Level Memphis Center
10:04AM 36.2211 -86.4183 68° East 548 631 41,000  Level Memphis Center
10:05AM 36.2778 -86.2406 68° East 554 638 41,000  Level Memphis Center
10:06AM 36.3364 -86.0622 68° East 560 644 41,000  Level Memphis Center
10:08AM 36.4469 -85.7172 68° East 552 635 41,000  Level Indianapolis Center
10:09AM 36.5042 -85.5375 68° East 556 640 41,000  Level Indianapolis Center
10:10AM 36.5600 -85.3558 69° East 559 643 41,000  Level Indianapolis Center
10:11AM 36.6153 -85.1750 69° East 556 640 41,000  Level Indianapolis Center
10:13AM 36.6789 -85.0003 66° East 554 638 41,000  Level Indianapolis Center
10:14AM 36.7672 -84.8036 61° Northeast 540 621 41,000  Level Indianapolis Center
10:15AM 36.8408 -84.6403 61° Northeast 537 618 41,000  Level Indianapolis Center
10:16AM 36.9133 -84.4850 60° Northeast 540 621 41,000  Level Indianapolis Center
10:17AM 36.9872 -84.3247 60° Northeast 534 615 41,000  Level Indianapolis Center
10:18AM 37.0831 -84.1453 56° Northeast 532 612 41,000  Level Indianapolis Center
10:19AM 37.1675 -83.9911 55° Northeast 534 615 41,000  Level Indianapolis Center
10:20AM 37.2247 -83.8122 68° East 549 632 41,000  Level Indianapolis Center
10:21AM 37.2644 -83.6247 75° East 554 638 41,000  Level Indianapolis Center
10:22AM 37.3050 -83.4367 75° East 554 638 41,000  Level Indianapolis Center
10:23AM 37.3458 -83.2500 75° East 552 635 41,000  Level Indianapolis Center
10:24AM 37.3858 -83.0622 75° East 552 635 41,000  Level Indianapolis Center
10:25AM 37.4325 -82.8419 75° East 552 635 41,000  Level Indianapolis Center
10:26AM 37.4719 -82.6542 75° East 552 635 41,000  Level Indianapolis Center
10:27AM 37.5119 -82.4656 75° East 554 638 41,000  Level Indianapolis Center
10:28AM 37.5514 -82.2775 75° East 554 638 41,000  Level Indianapolis Center
10:29AM 37.5892 -82.0886 76° East 553 636 41,000  Level Indianapolis Center
10:30AM 37.6275 -81.9017 75° East 550 633 41,000  Level Indianapolis Center
10:31AM 37.6717 -81.6819 76° East 551 634 41,000  Level Indianapolis Center
10:32AM 37.7086 -81.4936 76° East 553 636 41,000  Level Indianapolis Center
10:33AM 37.7439 -81.3156 76° East 552 635 41,000  Level Indianapolis Center
10:34AM 37.7647 -81.1981 77° East 560 644 41,000  Level Washington Center
10:35AM 37.7853 -81.0261 81° East 555 639 41,000  Level Washington Center
10:36AM 37.8000 -80.8353 84° East 550 633 41,000  Level Washington Center
10:37AM 37.8103 -80.6439 86° East 550 633 41,000  Level Washington Center
10:38AM 37.8244 -80.4503 85° East 550 633 41,000  Level Washington Center
10:39AM 37.8392 -80.2408 85° East 550 633 41,000  Level Washington Center
10:40AM 37.8506 -80.0469 86° East 550 633 41,000  Level Washington Center
10:41AM 37.8619 -79.8531 86° East 550 633 41,000  Level Washington Center
10:42AM 37.8750 -79.6589 85° East 550 633 41,000  Level Washington Center
10:43AM 37.8856 -79.4650 86° East 550 633 41,000  Level Washington Center
10:44AM 37.8958 -79.2681 86° East 550 633 41,000  Level Washington Center
10:45AM 37.9072 -79.0947 85° East 550 633 41,000  Level Washington Center
10:46AM 37.9294 -78.9036 82° East 550 633 41,000  Level Washington Center
10:47AM 37.9511 -78.7178 82° East 550 633 41,000  Level Washington Center
10:48AM 37.9725 -78.5289 82° East 544 626 41,000  Level Washington Center
10:49AM 37.9958 -78.3375 81° East 544 626 41,000  Level Washington Center
10:50AM 38.0275 -78.1331 79° East 544 626 41,000  Level Washington Center
10:51AM 38.1039 -77.9692 59° Northeast 523 602 41,000  Level Washington Center
10:52AM 38.1861 -77.8056 57° Northeast 528 608 41,000  Level Washington Center
10:53AM 38.2683 -77.6467 57° Northeast 533 613 41,000  Level Washington Center
10:54AM 38.3603 -77.4981 52° Northeast 533 613 41,000 -60 Level Washington Center
10:55AM 38.4481 -77.3625 50° Northeast 541 623 40,900 -780 Descending Washington Center
10:56AM 38.5439 -77.2083 51° Northeast 541 623 39,500  Descending Washington Center
10:57AM 38.6503 -77.0350 52° Northeast 557 641 41,000 -1,800 Climbing Washington Center
10:58AM 38.7250 -76.8903 56° Northeast 557 641 36,000 -2,520 Descending Washington Center
10:59AM 38.7831 -76.7022 68° East 545 627 36,000  Level Washington Center
11:00AM 38.8453 -76.5164 67° East 556 640 36,000 -300 Level Washington Center
11:01AM 38.9131 -76.3306 65° Northeast 561 646 35,500 -2,220 Descending Washington Center
11:02AM 39.0411 -76.1689 44° Northeast 569 655 31,600 -3,360 Descending Washington Center
11:03AM 39.1750 -76.0600 32° Northeast 557 641 28,800 -2,640 Descending Washington Center
11:04AM 39.2919 -75.9722 30° Northeast 552 635 26,400 -3,000 Descending Washington Center
11:05AM 39.4147 -75.8819 30° Northeast 540 621 23,400 -3,600 Descending FAA TRACON SMA TRACON (SMA)
11:05AM 39.4592 -75.8486 30° Northeast 532 612 22,200 -3,480 Descending FAA TRACON SMA TRACON (SMA)
11:05AM 39.5003 -75.8194 29° Northeast 526 605 21,100 -3,480 Descending FAA TRACON SMA TRACON (SMA)
11:06AM 39.5372 -75.7925 29° Northeast 521 600 19,900 -4,140 Descending FAA TRACON SMA TRACON (SMA)
11:06AM 39.6228 -75.7289 30° Northeast 503 579 17,000 -3,720 Descending FAA TRACON SMA TRACON (SMA)
11:07AM 39.6597 -75.7019 29° Northeast 497 572 16,200 -2,700 Descending FAA TRACON SMA TRACON (SMA)
11:07AM 39.6950 -75.6767 29° Northeast 477 549 15,200 -3,300 Descending FAA TRACON SMA TRACON (SMA)
11:07AM 39.7369 -75.6450 30° Northeast 467 537 14,000 -2,700 Descending FAA TRACON SMA TRACON (SMA)
11:08AM 39.7722 -75.6181 30° Northeast 451 519 13,400 -1,380 Descending FAA TRACON SMA TRACON (SMA)
11:08AM 39.8022 -75.5931 33° Northeast 428 493 13,100 -600 Descending FAA TRACON SMA TRACON (SMA)
11:08AM 39.8375 -75.5617 34° Northeast 391 450 13,000 -180 Descending FAA TRACON SMA TRACON (SMA)
11:09AM 39.8644 -75.5372 35° Northeast 395 455 13,000  Level FAA TRACON SMA TRACON (SMA)
11:09AM 39.8936 -75.5106 35° Northeast 397 457 13,000  Level FAA TRACON SMA TRACON (SMA)
11:09AM 39.9281 -75.4783 36° Northeast 394 453 13,000  Level FAA TRACON SMA TRACON (SMA)
11:10AM 39.9561 -75.4514 36° Northeast 393 452 13,000  Level FAA TRACON SMA TRACON (SMA)
11:10AM 39.9831 -75.4269 35° Northeast 392 451 13,000  Level FAA TRACON SMA TRACON (SMA)
11:10AM 40.0172 -75.3950 36° Northeast 390 449 13,000  Level FAA TRACON SMA TRACON (SMA)
11:11AM 40.0447 -75.3700 35° Northeast 389 448 13,000  Level FAA TRACON SMA TRACON (SMA)
11:11AM 40.0747 -75.3419 36° Northeast 366 421 13,000  Level FAA TRACON SMA TRACON (SMA)
11:11AM 40.1003 -75.3186 35° Northeast 333 383 13,000  Level FAA TRACON SMA TRACON (SMA)
11:12AM 40.1242 -75.2947 37° Northeast 335 386 13,000  Level FAA TRACON SMA TRACON (SMA)
11:12AM 40.1472 -75.2742 34° Northeast 333 383 13,000 -780 Level FAA TRACON SMA TRACON (SMA)
11:12AM 40.1761 -75.2475 35° Northeast 332 382 12,500 -1,680 Descending FAA TRACON SMA TRACON (SMA)
11:13AM 40.1986 -75.2256 37° Northeast 329 379 11,900 -1,500 Descending FAA TRACON SMA TRACON (SMA)
11:13AM 40.2483 -75.1797 35° Northeast 319 367 11,000 -1,320 Descending FAA TRACON SMA TRACON (SMA)
11:14AM 40.2708 -75.1586 36° Northeast 313 360 10,600 -1,380 Descending FAA TRACON SMA TRACON (SMA)
11:14AM 40.2922 -75.1389 35° Northeast 307 353 10,100 -1,980 Descending FAA TRACON SMA TRACON (SMA)
11:14AM 40.3181 -75.1150 35° Northeast 306 352 9,300 -1,980 Descending FAA TRACON SMA TRACON (SMA)
11:15AM 40.3378 -75.0903 44° Northeast 304 350 8,800 -1,560 Descending FAA TRACON SMA TRACON (SMA)
11:15AM 40.3550 -75.0644 49° Northeast 301 346 8,300 -1,740 Descending FAA TRACON SMA TRACON (SMA)
11:16AM 40.3939 -75.0086 48° Northeast 299 344 7,100 -1,320 Descending FAA TRACON SMA TRACON (SMA)
11:16AM 40.4106 -74.9864 45° Northeast 296 341 7,000 -180 Descending FAA TRACON SMA TRACON (SMA)
11:16AM 40.4281 -74.9611 48° Northeast 290 334 7,000 -600 Level FAA TRACON SMA TRACON (SMA)
11:17AM 40.4489 -74.9317 47° Northeast 287 330 6,600 -1,380 Descending FAA TRACON SMA TRACON (SMA)
11:17AM 40.4653 -74.9100 45° Northeast 286 329 6,100 -1,380 Descending FAA TRACON SMA TRACON (SMA)
11:17AM 40.4822 -74.8836 50° Northeast 288 331 5,700 -1,080 Descending FAA TRACON SMA TRACON (SMA)
11:18AM 40.5003 -74.8533 52° Northeast 288 331 5,400 -1,080 Descending FAA TRACON SMA TRACON (SMA)
11:18AM 40.5094 -74.8219 69° East 275 316 5,000 -1,080 Descending FAA TRACON SMA TRACON (SMA)
11:18AM 40.5147 -74.7894 78° East 296 341 4,700 -480 Descending FAA TRACON SMA TRACON (SMA)
11:19AM 40.5147 -74.7894 303° West 296 341 4,700 -900 Level FAA TRACON SMA TRACON (SMA)
11:20AM 40.5333 -74.6333 81° East 260 299 3,300 -720 Descending New York TRACON
11:21AM 40.5500 -74.5500 75° East 254 292 3,100 -180 Descending New York TRACON
11:22AM 40.5833 -74.4667 62° Northeast 259 298 3,000  Descending New York TRACON
11:23AM 40.6333 -74.4000 45° Northeast 247 284 3,100 -180 Climbing New York TRACON
11:24AM 40.6667 -74.3333 57° Northeast 194 223 2,700 -660 Descending New York TRACON
11:25AM 40.7000 -74.3000 37° Northeast 181 208 1,900 -660 Descending New York TRACON
11:26AM 40.7333 -74.2500 49° Northeast 183 211 1,500 -240 Descending New York TRACON
11:27AM 40.7667 -74.1833 57° Northeast 182 209 1,500  Level New York TRACON
11:28AM 40.8000 -74.1500 37° Northeast 175 201 1,500 -420 Level New York TRACON
11:29AM 40.8167 -74.1000 66° East 157 181 800 -720 Descending New York TRACON
11:31AM 40.8500 -74.0500 57° Northeast  Level FlightAware Approximate
11:38AM 40.8501 -74.0608 57° Northeast  Level Estimated
11:39AM 40.8501 -74.0608 57° Northeast  Level Estimated